createdAt,value
2022-10-17T00:04:20.275Z,28.30
2022-10-17T00:09:23.271Z,28.20
2022-10-17T00:14:26.200Z,28.20
2022-10-17T00:19:29.102Z,31.40
2022-10-17T00:24:32.043Z,33.30
2022-10-17T00:29:34.991Z,28.70
2022-10-17T00:34:37.905Z,26.10
2022-10-17T00:39:40.800Z,31.10
2022-10-17T00:44:47.095Z,27.80
2022-10-17T00:49:50.533Z,30.00
2022-10-17T01:00:32.787Z,32.20
2022-10-17T01:05:37.113Z,32.10
2022-10-17T01:11:02.627Z,30.90
2022-10-17T01:16:52.310Z,32.50
2022-10-17T01:22:04.077Z,32.30
2022-10-17T01:27:35.307Z,30.80
2022-10-17T01:32:57.863Z,32.20
2022-10-17T01:38:14.786Z,34.80
2022-10-17T01:43:30.126Z,36.10
2022-10-17T01:48:38.768Z,37.30
2022-10-17T01:54:06.919Z,35.30
2022-10-17T01:59:17.443Z,30.70
2022-10-17T02:04:20.609Z,36.50
2022-10-17T02:09:26.524Z,34.10
2022-10-17T02:14:45.060Z,38.30
2022-10-17T02:20:20.033Z,32.60
2022-10-17T02:26:04.903Z,31.20
2022-10-17T02:31:22.736Z,30.80
2022-10-17T02:36:46.123Z,35.80
2022-10-17T02:41:52.540Z,32.70
2022-10-17T02:47:16.147Z,40.30
2022-10-17T02:52:31.253Z,32.50
2022-10-17T02:57:41.061Z,33.80
2022-10-17T03:02:48.509Z,32.80
2022-10-17T03:07:52.372Z,35.70
2022-10-17T03:12:55.982Z,33.50
2022-10-17T03:17:58.886Z,33.10
2022-10-17T03:23:02.101Z,33.40
2022-10-17T03:28:05.688Z,33.60
2022-10-17T03:33:08.591Z,34.10
2022-10-17T03:38:11.463Z,38.60
2022-10-17T03:43:14.353Z,35.10
2022-10-17T03:48:17.229Z,36.20
2022-10-17T03:53:20.177Z,36.80
2022-10-17T03:58:23.305Z,33.80
2022-10-17T04:03:26.230Z,34.80
2022-10-17T04:08:29.981Z,36.50
2022-10-17T04:13:33.981Z,33.90
2022-10-17T04:18:36.924Z,34.20
2022-10-17T04:23:40.244Z,35.00
2022-10-17T04:28:43.138Z,35.40
2022-10-17T04:33:50.864Z,30.10
2022-10-17T04:38:54.013Z,38.20
2022-10-17T04:43:56.897Z,38.00
2022-10-17T04:48:59.797Z,34.70
2022-10-17T04:54:02.722Z,37.40
2022-10-17T04:59:05.688Z,39.30
2022-10-17T05:04:08.596Z,44.10
2022-10-17T05:09:11.502Z,42.40
2022-10-17T05:14:15.575Z,40.30
2022-10-17T05:19:18.667Z,35.60
2022-10-17T05:24:21.847Z,45.30
2022-10-17T05:29:24.754Z,39.40
2022-10-17T05:34:27.716Z,34.40
2022-10-17T05:39:30.633Z,40.90
2022-10-17T05:44:33.702Z,38.50
2022-10-17T05:49:52.626Z,45.10
2022-10-17T05:54:55.657Z,57.00
2022-10-17T05:59:58.566Z,40.20
2022-10-17T06:05:01.512Z,36.20
2022-10-17T06:10:04.981Z,40.40
2022-10-17T07:29:11.749Z,42.50
2022-10-17T07:34:14.792Z,43.80
2022-10-17T07:39:17.812Z,35.80
2022-10-17T07:44:21.060Z,39.40
2022-10-17T07:49:24.034Z,43.30
2022-10-17T07:54:26.935Z,65.40
2022-10-17T07:59:29.843Z,43.10
2022-10-17T08:04:34.777Z,29.70
2022-10-17T08:09:37.804Z,30.70
2022-10-17T08:14:42.538Z,31.90
2022-10-17T08:19:45.431Z,37.40
2022-10-17T08:24:48.343Z,32.10
2022-10-17T08:29:54.825Z,35.00
2022-10-17T08:34:57.748Z,31.90
2022-10-17T08:40:00.681Z,31.50
2022-10-17T08:45:17.057Z,32.90
2022-10-17T08:50:36.833Z,28.50
2022-10-17T08:55:51.680Z,31.10
2022-10-17T09:01:24.233Z,29.20
2022-10-17T09:06:45.211Z,30.90
2022-10-17T09:12:24.783Z,32.20
2022-10-17T09:17:54.944Z,32.00
2022-10-17T09:23:11.865Z,31.20
2022-10-17T09:28:31.300Z,28.10
2022-10-17T09:33:54.234Z,30.40
2022-10-17T09:39:02.002Z,29.10
2022-10-17T09:44:23.052Z,28.00
2022-10-17T09:49:39.473Z,27.50
2022-10-17T09:55:15.446Z,26.70
2022-10-17T10:00:28.038Z,27.30
2022-10-17T10:10:34.278Z,25.50
2022-10-17T10:15:46.602Z,25.50
2022-10-17T10:21:04.467Z,24.60
2022-10-17T10:26:25.933Z,30.40
2022-10-17T10:31:37.083Z,28.10
2022-10-17T10:36:52.918Z,26.10
2022-10-17T10:41:56.007Z,24.60
2022-10-17T10:47:22.740Z,22.90
2022-10-17T10:53:07.930Z,21.80
2022-10-17T10:58:48.670Z,24.40
2022-10-17T11:04:49.212Z,23.00
2022-10-17T11:10:47.738Z,24.40
2022-10-17T11:16:18.070Z,25.30
2022-10-17T11:21:48.604Z,21.00
2022-10-17T11:27:06.645Z,19.80
2022-10-17T11:32:25.089Z,21.00
2022-10-17T11:37:34.674Z,22.00
2022-10-17T11:43:20.263Z,22.00
2022-10-17T11:48:39.147Z,19.90
2022-10-17T11:53:51.219Z,19.00
2022-10-17T12:58:28.476Z,16.70
2022-10-17T13:03:44.348Z,15.90
2022-10-17T13:09:03.577Z,17.20
2022-10-17T13:14:14.757Z,16.10
2022-10-17T13:19:25.462Z,18.10
2022-10-17T13:24:33.049Z,17.00
2022-10-17T13:29:44.475Z,15.60
2022-10-17T13:35:04.392Z,17.40
2022-10-17T13:46:25.383Z,16.50
2022-10-17T13:51:28.703Z,17.10
2022-10-17T14:01:38.325Z,16.00
2022-10-17T14:06:51.134Z,13.80
2022-10-17T14:12:08.638Z,15.50
2022-10-17T14:17:30.897Z,16.60
2022-10-17T14:22:38.562Z,17.40
2022-10-17T14:28:14.137Z,18.50
2022-10-17T14:33:26.341Z,17.10
2022-10-17T14:38:30.621Z,16.80
2022-10-17T14:43:33.556Z,21.30
2022-10-17T14:48:36.656Z,20.50
2022-10-17T14:54:21.562Z,19.40
2022-10-17T14:59:52.194Z,18.50
2022-10-17T15:04:48.906Z,19.50
2022-10-17T15:09:54.131Z,18.70
2022-10-17T15:14:57.354Z,18.10
2022-10-17T15:25:04.017Z,23.40
2022-10-17T15:30:29.227Z,22.70
2022-10-17T15:35:32.248Z,21.60
2022-10-17T15:40:35.186Z,21.90
2022-10-17T15:45:38.139Z,21.30
2022-10-17T15:50:41.049Z,22.60
2022-10-17T15:55:44.030Z,23.30
2022-10-17T16:00:48.007Z,26.80
2022-10-17T16:05:50.940Z,38.50
2022-10-17T16:10:54.077Z,19.60
2022-10-17T16:15:57.922Z,20.60
2022-10-17T16:21:04.137Z,27.60
2022-10-17T16:26:08.278Z,27.80
2022-10-17T16:31:24.017Z,28.30
2022-10-17T16:36:27.001Z,25.50
2022-10-17T16:41:33.971Z,24.90
2022-10-17T16:46:38.257Z,27.70
2022-10-17T16:51:41.166Z,23.80
2022-10-17T16:56:44.107Z,29.80
2022-10-17T17:01:47.003Z,27.00
2022-10-17T17:06:50.000Z,29.00
2022-10-17T17:11:52.917Z,34.40
2022-10-17T17:16:55.869Z,31.70
2022-10-17T17:21:58.809Z,51.60
2022-10-17T17:27:01.910Z,80.70
2022-10-17T17:32:05.092Z,73.50
2022-10-17T17:37:08.035Z,79.10
2022-10-17T17:42:10.965Z,55.10
2022-10-17T17:47:13.881Z,46.10
2022-10-17T17:52:16.939Z,42.70
2022-10-17T17:57:19.840Z,49.10
2022-10-17T18:02:22.758Z,39.90
2022-10-17T18:07:25.702Z,39.20
2022-10-17T18:12:30.455Z,31.00
2022-10-17T18:17:34.644Z,29.50
2022-10-17T18:22:37.544Z,30.70
2022-10-17T18:27:40.447Z,32.80
2022-10-17T18:32:43.405Z,32.50
2022-10-17T18:37:46.409Z,34.10
2022-10-17T18:42:49.330Z,36.50
2022-10-17T18:47:54.887Z,33.80
2022-10-17T18:52:57.780Z,33.70
2022-10-17T18:58:00.783Z,36.40
2022-10-17T19:03:05.020Z,39.60
2022-10-17T19:08:07.973Z,37.60
2022-10-17T19:13:11.934Z,37.80
2022-10-17T19:18:14.897Z,49.90
2022-10-17T19:23:17.791Z,47.80
2022-10-17T19:28:20.710Z,45.30
2022-10-17T19:33:23.992Z,39.10
2022-10-17T19:43:29.858Z,47.90
2022-10-17T19:48:35.535Z,42.10
2022-10-17T19:53:39.010Z,46.80
2022-10-17T19:58:45.641Z,50.50
2022-10-17T20:03:49.515Z,47.20
2022-10-17T20:08:53.601Z,46.40
2022-10-17T20:13:57.554Z,46.60
2022-10-17T20:19:12.788Z,41.30
2022-10-17T20:24:17.188Z,35.30
2022-10-17T20:29:21.543Z,34.70
2022-10-17T20:34:25.091Z,35.00
2022-10-17T20:39:28.553Z,34.70
2022-10-17T20:44:31.582Z,34.80
2022-10-17T20:49:34.603Z,38.20
2022-10-17T20:54:37.768Z,34.70
2022-10-17T20:59:40.793Z,30.20
2022-10-17T21:04:46.767Z,31.90
2022-10-17T21:09:50.036Z,35.10
2022-10-17T21:14:52.956Z,32.70
2022-10-17T21:19:56.125Z,32.40
2022-10-17T21:24:59.056Z,32.90
2022-10-17T21:30:02.539Z,32.00
2022-10-17T21:35:06.316Z,35.70
2022-10-17T21:40:10.278Z,31.10
2022-10-17T21:45:15.699Z,35.10
2022-10-17T21:50:19.065Z,31.80
2022-10-17T21:55:21.937Z,34.10
2022-10-17T22:00:24.942Z,33.90
2022-10-17T22:05:27.905Z,31.70
2022-10-17T22:10:30.946Z,32.40
2022-10-17T22:15:33.937Z,34.30
2022-10-17T22:20:36.963Z,35.50
2022-10-17T22:25:39.863Z,37.70
2022-10-17T22:30:42.794Z,29.60
2022-10-17T22:35:46.590Z,32.30
2022-10-17T22:40:49.499Z,35.00
2022-10-17T22:45:58.296Z,38.60
2022-10-17T22:51:02.558Z,34.20
2022-10-17T22:56:10.818Z,34.80
2022-10-17T23:01:18.068Z,39.30
2022-10-17T23:06:21.650Z,38.00
2022-10-17T23:11:24.708Z,39.50
2022-10-17T23:16:27.670Z,39.90
2022-10-17T23:21:30.571Z,38.50
2022-10-17T23:26:33.508Z,37.70
2022-10-17T23:31:36.472Z,35.80
2022-10-17T23:36:39.508Z,40.80
2022-10-17T23:41:42.437Z,36.10
2022-10-17T23:46:45.372Z,35.40
2022-10-17T23:51:48.283Z,34.50
2022-10-17T23:56:51.198Z,103.00
